Terminal Aerodrome Forecast
Issued by NWS Melbourne, FL

Home | Current Version | Previous Version | Text Only | Print | Product List | Glossary On
Versions: 1 2 3 4 5 6 7 8 9 10 11 12
000
FTUS42 KMLB 152323
TAFMLB
TAF
KMLB 152323Z 1600/1624 23004KT P6SM FEW050 SCT250
     FM160500 28003KT P6SM SCT250
     FM160900 32004KT P6SM SCT250
     FM161700 04008KT P6SM SCT060 BKN250=

USA.gov is the U.S. government's official web portal to all federal, state and local government web resources and services.